Time;durP1;ratioP1;P1;durP2;ratioP2;P2;SDS_P1;SDS_P2;PMS_P1;PMS_P2;Temp;Humidity;BMP_temperature;BMP_pressure;BME280_temperature;BME280_humidity;BME280_pressure;Samples;Min_cycle;Max_cycle;Signal;HPM_P1;HPM_P2
2023/08/14 00:00:59;;;;;;;8.75;7.82;;;21.30;70.50;;;;;;5013778;28;20033;-56
2023/08/14 00:03:25;;;;;;;11.70;7.55;;;21.40;70.70;;;;;;5013303;28;20065;-53
2023/08/14 00:05:50;;;;;;;12.18;7.60;;;21.30;70.80;;;;;;5013688;28;20100;-58
2023/08/14 00:08:16;;;;;;;9.70;7.80;;;21.30;70.70;;;;;;5013363;28;20028;-57
2023/08/14 00:10:42;;;;;;;8.63;7.72;;;21.30;70.70;;;;;;5013297;28;20105;-58
2023/08/14 00:13:07;;;;;;;9.55;7.40;;;21.30;70.60;;;;;;5013494;28;20025;-57
2023/08/14 00:15:33;;;;;;;8.02;6.95;;;21.30;70.70;;;;;;5013181;28;20474;-53
2023/08/14 00:17:59;;;;;;;10.55;7.55;;;21.20;70.70;;;;;;5013104;28;20096;-54
2023/08/14 00:20:24;;;;;;;11.05;7.10;;;21.20;70.70;;;;;;5013004;28;20030;-57
2023/08/14 00:22:50;;;;;;;9.48;7.95;;;21.30;70.90;;;;;;5012915;28;20422;-55
2023/08/14 00:25:16;;;;;;;7.88;7.13;;;21.20;71.00;;;;;;5012996;28;20085;-56
2023/08/14 00:27:41;;;;;;;10.85;7.07;;;21.20;71.20;;;;;;5013201;28;20037;-54
2023/08/14 00:30:07;;;;;;;9.45;7.85;;;21.20;71.30;;;;;;5012878;28;20030;-56
2023/08/14 00:32:33;;;;;;;8.98;7.53;;;21.20;71.30;;;;;;5013148;28;20022;-57
2023/08/14 00:34:59;;;;;;;10.40;7.55;;;21.20;71.20;;;;;;5013112;28;20029;-56
2023/08/14 00:37:42;;;;;;;9.45;7.75;;;21.10;71.10;;;;;;5012907;28;20022;-58
2023/08/14 00:40:10;;;;;;;9.05;7.60;;;21.10;70.90;;;;;;5013024;28;20026;-57
2023/08/14 00:42:37;;;;;;;10.15;8.52;;;21.10;71.00;;;;;;5013040;28;20125;-56
2023/08/14 00:45:03;;;;;;;9.85;7.55;;;21.10;70.90;;;;;;5012656;28;20056;-57
2023/08/14 00:47:29;;;;;;;10.07;7.95;;;21.00;70.90;;;;;;5012674;28;20033;-54
2023/08/14 00:49:55;;;;;;;11.23;7.75;;;21.00;70.90;;;;;;5012081;28;20105;-58
2023/08/14 00:52:21;;;;;;;10.23;7.78;;;21.00;71.00;;;;;;5012601;28;20022;-57
2023/08/14 00:54:47;;;;;;;11.27;7.60;;;21.00;71.10;;;;;;5012593;28;20045;-53
2023/08/14 00:57:13;;;;;;;8.45;7.55;;;21.00;71.00;;;;;;5012742;28;20085;-56
2023/08/14 00:59:38;;;;;;;9.85;7.90;;;21.00;71.20;;;;;;5012584;28;20018;-57
2023/08/14 01:02:04;;;;;;;8.55;7.43;;;21.00;71.30;;;;;;5012330;28;20030;-57
2023/08/14 01:04:30;;;;;;;8.25;7.35;;;20.90;71.40;;;;;;5012260;28;20034;-54
2023/08/14 01:06:55;;;;;;;9.07;7.65;;;20.90;71.50;;;;;;5012288;28;20116;-57
2023/08/14 01:09:21;;;;;;;9.02;7.18;;;20.90;71.50;;;;;;5012559;28;20033;-56
2023/08/14 01:12:04;;;;;;;10.30;7.40;;;20.90;71.60;;;;;;5012781;28;20061;-57
2023/08/14 01:14:32;;;;;;;9.82;7.30;;;20.80;71.70;;;;;;5012239;28;20045;-57
2023/08/14 01:17:09;;;;;;;8.52;7.07;;;20.90;72.00;;;;;;5012355;28;20026;-56
2023/08/14 01:19:39;;;;;;;8.27;7.47;;;20.80;72.00;;;;;;5012113;28;20034;-57
2023/08/14 01:22:16;;;;;;;9.85;7.63;;;20.80;71.90;;;;;;5012001;28;20521;-56
2023/08/14 01:25:18;;;;;;;10.05;7.43;;;20.80;72.60;;;;;;5011963;28;20038;-58
2023/08/14 01:27:44;;;;;;;11.15;7.93;;;20.80;72.10;;;;;;5012034;28;20034;-57
2023/08/14 01:30:10;;;;;;;9.30;7.78;;;20.70;72.20;;;;;;5011934;28;20030;-57
2023/08/14 01:32:36;;;;;;;10.18;8.27;;;20.70;72.00;;;;;;5011843;28;20037;-56
2023/08/14 01:35:02;;;;;;;9.40;7.57;;;20.70;72.20;;;;;;5011889;28;20029;-56
2023/08/14 01:38:23;;;;;;;10.32;8.35;;;20.70;72.30;;;;;;5011842;28;20393;-57
2023/08/14 01:40:52;;;;;;;13.50;7.97;;;20.70;72.30;;;;;;5010308;28;20512;-57
2023/08/14 01:43:30;;;;;;;10.07;7.95;;;20.60;72.50;;;;;;5027036;28;20121;-57
2023/08/14 01:45:56;;;;;;;8.20;7.28;;;20.60;72.60;;;;;;5011726;28;20068;-56
2023/08/14 01:48:24;;;;;;;10.77;7.72;;;20.60;72.70;;;;;;5011757;28;20025;-57
2023/08/14 01:50:51;;;;;;;8.63;7.53;;;20.60;73.30;;;;;;5011555;28;20022;-56
2023/08/14 01:53:17;;;;;;;9.82;8.52;;;20.50;72.70;;;;;;5011536;28;20029;-55
2023/08/14 01:55:43;;;;;;;9.02;7.80;;;20.50;72.60;;;;;;5011827;28;20497;-53
2023/08/14 01:58:09;;;;;;;9.30;7.72;;;20.50;72.60;;;;;;5011601;28;20080;-56
2023/08/14 02:00:36;;;;;;;8.52;7.55;;;20.50;72.70;;;;;;5011279;28;20083;-57
2023/08/14 02:03:02;;;;;;;8.65;7.70;;;20.40;72.80;;;;;;5011107;28;20041;-57
2023/08/14 02:05:27;;;;;;;9.75;7.50;;;20.40;73.10;;;;;;5011649;28;20025;-55
2023/08/14 02:07:53;;;;;;;11.45;7.85;;;20.40;73.10;;;;;;5011816;28;20371;-53
2023/08/14 02:10:19;;;;;;;9.88;7.22;;;20.40;73.40;;;;;;5011401;28;20481;-56
2023/08/14 02:12:44;;;;;;;8.38;7.57;;;20.40;73.50;;;;;;5011617;28;20057;-57
2023/08/14 02:15:10;;;;;;;13.20;8.10;;;20.40;73.70;;;;;;5011386;28;20036;-57
2023/08/14 02:17:36;;;;;;;10.18;7.70;;;20.40;73.90;;;;;;5011399;28;20026;-56
2023/08/14 02:20:01;;;;;;;11.82;7.97;;;20.30;73.90;;;;;;5011268;28;20030;-57
2023/08/14 02:22:27;;;;;;;9.43;7.80;;;20.30;74.00;;;;;;5011055;28;20096;-57
2023/08/14 02:24:53;;;;;;;10.18;8.25;;;20.30;74.10;;;;;;5011154;28;20561;-53
2023/08/14 02:27:18;;;;;;;11.32;8.75;;;20.30;74.10;;;;;;5011581;28;20129;-58
2023/08/14 02:29:45;;;;;;;9.63;8.65;;;20.30;74.80;;;;;;5011229;28;20022;-56
2023/08/14 02:32:11;;;;;;;9.50;8.60;;;20.30;74.30;;;;;;5011222;28;20028;-56
2023/08/14 02:34:47;;;;;;;9.60;8.25;;;20.20;74.40;;;;;;5011238;28;20042;-57
2023/08/14 02:37:14;;;;;;;13.27;8.38;;;20.20;74.30;;;;;;5011176;28;20540;-57
2023/08/14 02:39:40;;;;;;;11.15;8.50;;;20.20;74.40;;;;;;5011154;28;20026;-53
2023/08/14 02:42:06;;;;;;;12.27;8.45;;;20.20;74.40;;;;;;5011197;28;20079;-57
2023/08/14 02:44:33;;;;;;;9.52;8.20;;;20.20;74.60;;;;;;5009744;28;20040;-53
2023/08/14 02:46:58;;;;;;;9.25;8.25;;;20.20;74.70;;;;;;5011098;28;20446;-57
2023/08/14 02:49:24;;;;;;;8.73;7.82;;;20.20;74.70;;;;;;5011312;28;20060;-53
2023/08/14 02:51:50;;;;;;;8.80;7.82;;;20.20;74.90;;;;;;5011217;28;20022;-59
2023/08/14 02:54:16;;;;;;;9.57;8.25;;;20.20;75.00;;;;;;5011063;28;20519;-57
2023/08/14 02:56:42;;;;;;;9.80;7.70;;;20.10;75.00;;;;;;5011015;28;20061;-56
2023/08/14 02:59:08;;;;;;;9.43;7.82;;;20.10;74.90;;;;;;5011597;28;20029;-57
2023/08/14 03:01:33;;;;;;;9.13;7.80;;;20.10;74.90;;;;;;5010885;28;20037;-56
2023/08/14 03:03:59;;;;;;;9.50;8.50;;;20.10;74.80;;;;;;5011112;28;20413;-58
2023/08/14 03:06:25;;;;;;;9.85;8.05;;;20.10;74.90;;;;;;5010902;28;20413;-53
2023/08/14 03:08:52;;;;;;;8.82;7.93;;;20.10;74.70;;;;;;5011219;28;20033;-57
2023/08/14 03:11:18;;;;;;;8.80;7.90;;;20.20;74.50;;;;;;5010836;28;20030;-57
2023/08/14 03:13:43;;;;;;;8.75;7.85;;;20.20;74.50;;;;;;5013204;28;20845;-56
2023/08/14 03:16:09;;;;;;;9.13;7.80;;;20.20;74.50;;;;;;5014700;28;20034;-58
2023/08/14 03:18:35;;;;;;;8.98;7.38;;;20.30;74.60;;;;;;5014272;28;20041;-56
2023/08/14 03:21:00;;;;;;;11.02;8.10;;;20.30;74.70;;;;;;5014653;28;20548;-55
2023/08/14 03:23:26;;;;;;;9.65;7.68;;;20.40;74.90;;;;;;5014184;28;20061;-56
2023/08/14 03:25:51;;;;;;;8.75;7.40;;;20.50;74.80;;;;;;5014342;28;20513;-53
2023/08/14 03:28:17;;;;;;;9.77;7.47;;;20.50;74.50;;;;;;5014119;28;20022;-56
2023/08/14 03:30:43;;;;;;;10.32;7.45;;;20.70;74.30;;;;;;5014712;28;20440;-57
2023/08/14 03:33:09;;;;;;;8.57;7.18;;;20.70;74.20;;;;;;5013977;28;20026;-57
2023/08/14 03:35:35;;;;;;;8.63;7.32;;;20.80;73.90;;;;;;5014255;28;20026;-57
2023/08/14 03:38:01;;;;;;;8.10;7.30;;;20.90;73.70;;;;;;5013944;28;20108;-55
2023/08/14 03:40:26;;;;;;;9.73;7.68;;;21.00;73.20;;;;;;5013799;28;20113;-57
2023/08/14 03:42:52;;;;;;;8.77;7.47;;;21.10;73.20;;;;;;5013833;28;20037;-55
2023/08/14 03:45:18;;;;;;;8.40;6.90;;;21.20;72.80;;;;;;5013723;28;20044;-55
2023/08/14 03:47:44;;;;;;;9.93;7.32;;;21.30;72.70;;;;;;5013782;28;20108;-51
2023/08/14 03:50:09;;;;;;;8.00;7.20;;;21.30;72.50;;;;;;5013770;28;20021;-57
2023/08/14 03:52:35;;;;;;;8.88;7.35;;;21.40;72.30;;;;;;5012570;28;20496;-51
2023/08/14 03:55:01;;;;;;;9.50;7.63;;;21.40;72.10;;;;;;5013448;28;20048;-56
2023/08/14 03:57:28;;;;;;;8.10;7.15;;;21.60;72.20;;;;;;5013489;28;20505;-55
2023/08/14 03:59:53;;;;;;;8.23;7.43;;;21.60;72.20;;;;;;5013537;28;20026;-58
2023/08/14 04:02:19;;;;;;;8.18;7.38;;;21.70;72.10;;;;;;5013438;28;20497;-56
2023/08/14 04:04:45;;;;;;;7.68;6.78;;;21.90;72.00;;;;;;5013505;28;20061;-57
2023/08/14 04:07:10;;;;;;;8.88;6.80;;;22.10;72.00;;;;;;5013200;28;20081;-55
2023/08/14 04:09:36;;;;;;;7.80;7.05;;;22.40;71.70;;;;;;5013592;28;20311;-58
2023/08/14 04:12:02;;;;;;;7.10;6.45;;;22.70;70.80;;;;;;5013463;28;20482;-57
2023/08/14 04:14:28;;;;;;;7.97;6.50;;;23.00;69.80;;;;;;5013688;28;20029;-58
2023/08/14 04:16:54;;;;;;;8.32;6.30;;;23.20;68.70;;;;;;5013307;28;20018;-58
2023/08/14 04:19:20;;;;;;;8.30;7.10;;;23.40;67.90;;;;;;5013159;28;20147;-58
2023/08/14 04:21:46;;;;;;;8.15;6.85;;;23.60;67.60;;;;;;5013016;28;20438;-59
2023/08/14 04:24:12;;;;;;;8.23;6.40;;;23.70;66.50;;;;;;5012294;28;20497;-59
2023/08/14 04:26:38;;;;;;;7.95;7.03;;;23.80;66.30;;;;;;5012847;28;20149;-57
2023/08/14 04:29:08;;;;;;;8.73;7.15;;;23.90;66.40;;;;;;5012991;28;20018;-54
2023/08/14 04:31:38;;;;;;;10.82;7.22;;;23.90;66.10;;;;;;5013039;28;20024;-59
2023/08/14 04:34:05;;;;;;;8.02;6.97;;;24.00;65.80;;;;;;5012949;28;20038;-58
2023/08/14 04:36:32;;;;;;;8.23;7.00;;;24.00;65.60;;;;;;5012855;28;20033;-58
2023/08/14 04:38:58;;;;;;;10.05;7.78;;;24.00;65.30;;;;;;5013648;28;20076;-59
2023/08/14 04:41:25;;;;;;;9.55;7.85;;;24.00;65.20;;;;;;5012184;28;20022;-57
2023/08/14 04:43:51;;;;;;;9.35;7.35;;;24.00;65.10;;;;;;5012831;28;20018;-57
2023/08/14 04:46:30;;;;;;;10.02;7.55;;;24.10;65.00;;;;;;5013766;28;20470;-57
2023/08/14 04:48:57;;;;;;;9.02;7.20;;;24.50;64.80;;;;;;5013190;28;20100;-59
2023/08/14 04:51:22;;;;;;;9.93;7.00;;;24.80;63.70;;;;;;5012598;28;20041;-58
2023/08/14 04:53:48;;;;;;;10.50;7.50;;;24.90;63.00;;;;;;5012432;28;20055;-57
2023/08/14 04:56:13;;;;;;;7.32;6.50;;;25.00;62.70;;;;;;5013285;28;20371;-59
2023/08/14 04:58:39;;;;;;;7.70;6.80;;;25.00;62.90;;;;;;5013391;28;20096;-59
2023/08/14 05:01:05;;;;;;;7.63;6.63;;;24.90;62.90;;;;;;5013692;28;20401;-58
2023/08/14 05:03:30;;;;;;;9.15;7.28;;;24.90;63.20;;;;;;5013225;28;20030;-58
2023/08/14 05:05:56;;;;;;;9.43;7.05;;;24.90;63.60;;;;;;5012008;28;20070;-56
2023/08/14 05:08:21;;;;;;;9.68;6.75;;;25.00;63.80;;;;;;5011962;28;20049;-57
2023/08/14 05:10:52;;;;;;;7.75;6.57;;;25.10;63.70;;;;;;5013236;28;20061;-58
2023/08/14 05:13:18;;;;;;;9.90;6.18;;;25.30;63.40;;;;;;5013116;28;20026;-57
2023/08/14 05:15:48;;;;;;;9.30;6.40;;;25.40;63.60;;;;;;5013584;28;20029;-59
2023/08/14 05:18:15;;;;;;;8.38;6.15;;;25.40;63.40;;;;;;5013718;28;20080;-57
2023/08/14 05:20:44;;;;;;;8.35;6.75;;;25.40;63.30;;;;;;5010730;28;20032;-59
2023/08/14 05:23:11;;;;;;;8.48;6.18;;;25.40;63.50;;;;;;5014183;28;20049;-59
2023/08/14 05:25:37;;;;;;;6.65;5.85;;;25.30;63.80;;;;;;5014128;28;20034;-56
2023/08/14 05:28:03;;;;;;;6.80;5.95;;;25.20;64.00;;;;;;5014033;28;20359;-55
2023/08/14 05:30:29;;;;;;;8.88;6.25;;;25.20;64.20;;;;;;5013662;28;20026;-56
2023/08/14 05:32:55;;;;;;;7.88;6.40;;;25.30;64.30;;;;;;5014897;28;20121;-58
2023/08/14 05:35:24;;;;;;;8.82;6.50;;;25.40;63.90;;;;;;5014621;28;20049;-58
2023/08/14 05:37:57;;;;;;;6.93;6.22;;;25.70;63.60;;;;;;5014224;28;20437;-59
2023/08/14 05:40:23;;;;;;;9.80;5.90;;;26.00;62.60;;;;;;5012191;28;20045;-56
2023/08/14 05:43:05;;;;;;;6.70;6.00;;;26.20;62.60;;;;;;5010941;28;20030;-57
2023/08/14 05:45:32;;;;;;;7.07;5.85;;;26.30;62.60;;;;;;5005059;28;20022;-58
2023/08/14 05:47:58;;;;;;;7.05;6.05;;;26.30;62.50;;;;;;5009609;28;20025;-55
2023/08/14 05:50:25;;;;;;;7.03;6.18;;;26.20;63.00;;;;;;5011312;28;20014;-60
2023/08/14 05:52:51;;;;;;;7.18;6.20;;;26.10;63.40;;;;;;5014984;28;20048;-56
2023/08/14 05:55:17;;;;;;;7.13;6.40;;;26.10;63.40;;;;;;5014919;28;20133;-55
2023/08/14 05:57:42;;;;;;;7.40;6.70;;;26.00;63.40;;;;;;5015177;28;20450;-54
2023/08/14 06:00:11;;;;;;;6.63;5.97;;;26.00;63.50;;;;;;5015601;28;20061;-57
2023/08/14 06:02:37;;;;;;;6.78;6.07;;;25.90;63.80;;;;;;5014645;28;20117;-54
2023/08/14 06:05:03;;;;;;;6.90;6.20;;;25.90;64.50;;;;;;5013854;28;20102;-57
2023/08/14 06:07:28;;;;;;;8.95;6.60;;;25.90;64.50;;;;;;5013091;28;20049;-53
2023/08/14 06:09:54;;;;;;;7.05;6.20;;;25.90;64.80;;;;;;5013179;28;20084;-57
2023/08/14 06:12:20;;;;;;;6.75;6.07;;;25.80;64.80;;;;;;5012672;28;20091;-58
2023/08/14 06:14:45;;;;;;;7.32;6.55;;;25.80;64.90;;;;;;5013611;28;20032;-58
2023/08/14 06:17:11;;;;;;;6.90;5.88;;;25.80;65.00;;;;;;5013238;28;20116;-55
2023/08/14 06:19:37;;;;;;;7.18;6.47;;;25.80;65.00;;;;;;5010375;28;20123;-56
2023/08/14 06:22:03;;;;;;;7.70;6.65;;;25.80;65.10;;;;;;5010644;28;20041;-54
2023/08/14 06:24:29;;;;;;;7.85;6.47;;;25.80;65.20;;;;;;5013018;28;20026;-54
2023/08/14 06:26:58;;;;;;;11.77;6.40;;;25.80;65.20;;;;;;5013318;28;20032;-54
2023/08/14 06:29:23;;;;;;;6.93;6.10;;;25.80;65.40;;;;;;5011297;28;20018;-53
2023/08/14 06:31:49;;;;;;;6.97;6.28;;;25.80;65.40;;;;;;5014636;28;20026;-58
2023/08/14 06:34:15;;;;;;;6.30;5.70;;;25.70;65.70;;;;;;5015761;28;20034;-56
2023/08/14 06:36:41;;;;;;;7.43;6.72;;;25.80;66.10;;;;;;5013719;28;20034;-57
2023/08/14 06:39:07;;;;;;;7.63;6.47;;;25.80;65.90;;;;;;5014427;28;20041;-57
2023/08/14 06:41:33;;;;;;;7.82;6.70;;;25.80;66.10;;;;;;5013528;28;20018;-56
2023/08/14 06:43:58;;;;;;;6.90;6.18;;;25.70;66.00;;;;;;5021374;28;20021;-56
2023/08/14 06:46:24;;;;;;;7.97;6.25;;;25.80;66.10;;;;;;5017432;28;20033;-56
2023/08/14 06:48:49;;;;;;;6.85;6.25;;;25.80;66.20;;;;;;5023303;28;20030;-57
2023/08/14 06:51:15;;;;;;;8.98;6.55;;;25.80;66.10;;;;;;5018887;28;20025;-55
2023/08/14 06:53:41;;;;;;;7.30;6.50;;;25.80;66.30;;;;;;5017905;28;20033;-55
2023/08/14 06:56:06;;;;;;;7.05;5.97;;;25.80;66.40;;;;;;5017279;28;20034;-58
2023/08/14 06:58:32;;;;;;;8.27;6.30;;;25.80;66.50;;;;;;5015651;28;20030;-57
2023/08/14 07:00:58;;;;;;;8.35;6.88;;;25.80;66.40;;;;;;5010949;28;20038;-56
2023/08/14 07:03:24;;;;;;;7.50;6.30;;;25.80;66.50;;;;;;5012480;28;20058;-57
2023/08/14 07:05:50;;;;;;;7.30;6.25;;;25.80;66.60;;;;;;5019013;28;20119;-56
2023/08/14 07:08:15;;;;;;;7.43;6.43;;;25.80;66.60;;;;;;5013562;28;20033;-52
2023/08/14 07:10:41;;;;;;;7.22;6.53;;;25.80;66.60;;;;;;5016263;28;20034;-56
2023/08/14 07:13:07;;;;;;;9.23;6.20;;;25.80;66.90;;;;;;5013251;28;20139;-57
2023/08/14 07:15:32;;;;;;;7.82;6.63;;;25.80;67.10;;;;;;5018546;28;20391;-56
2023/08/14 07:17:58;;;;;;;8.25;6.50;;;25.80;67.30;;;;;;5019721;28;20065;-54
2023/08/14 07:20:26;;;;;;;6.72;6.10;;;25.80;67.20;;;;;;5009260;28;20124;-58
2023/08/14 07:22:52;;;;;;;9.93;7.15;;;25.80;67.20;;;;;;5012636;28;20421;-54
2023/08/14 07:25:18;;;;;;;7.90;6.88;;;25.80;67.30;;;;;;5036373;28;20152;-56
2023/08/14 07:27:44;;;;;;;7.10;6.03;;;25.80;67.30;;;;;;5026037;28;20034;-54
2023/08/14 07:30:10;;;;;;;6.88;6.25;;;25.90;67.80;;;;;;5022775;28;20018;-57
2023/08/14 07:32:36;;;;;;;7.40;6.70;;;25.90;67.50;;;;;;5018309;28;20022;-58
2023/08/14 07:35:02;;;;;;;7.60;6.80;;;25.90;67.50;;;;;;5009871;28;20389;-56
2023/08/14 07:37:28;;;;;;;6.65;5.95;;;25.90;67.40;;;;;;5006843;28;20516;-57
2023/08/14 07:39:54;;;;;;;8.07;6.50;;;25.90;67.30;;;;;;5008198;28;20037;-55
2023/08/14 07:42:19;;;;;;;9.52;6.43;;;25.90;67.20;;;;;;5006366;28;20030;-58
2023/08/14 07:44:45;;;;;;;9.95;6.85;;;25.90;66.70;;;;;;5012726;28;20093;-58
2023/08/14 07:47:11;;;;;;;7.53;6.15;;;25.90;66.90;;;;;;5011429;28;20018;-57
2023/08/14 07:49:36;;;;;;;7.03;6.10;;;25.90;67.10;;;;;;5005000;28;20029;-57
2023/08/14 07:52:02;;;;;;;7.75;5.97;;;25.90;67.20;;;;;;5007353;28;20045;-54
2023/08/14 07:54:28;;;;;;;8.48;6.13;;;25.80;67.00;;;;;;5015081;28;20028;-57
2023/08/14 07:56:53;;;;;;;7.05;6.35;;;25.80;67.40;;;;;;5025021;28;20124;-52
2023/08/14 07:59:19;;;;;;;7.78;6.97;;;25.90;67.20;;;;;;5021301;28;20039;-56
2023/08/14 08:01:45;;;;;;;7.90;6.28;;;25.80;67.10;;;;;;5018863;28;20030;-51
2023/08/14 08:04:11;;;;;;;8.13;6.28;;;25.80;67.50;;;;;;5008863;28;20030;-58
2023/08/14 08:06:37;;;;;;;6.82;5.85;;;25.80;67.00;;;;;;5011987;28;20030;-55
2023/08/14 08:09:03;;;;;;;6.90;6.13;;;25.80;67.30;;;;;;5014930;28;20385;-55
2023/08/14 08:11:29;;;;;;;7.57;6.38;;;25.80;67.10;;;;;;5020115;28;20026;-58
2023/08/14 08:13:55;;;;;;;7.32;6.60;;;25.80;67.40;;;;;;5017391;28;20022;-55
2023/08/14 08:16:20;;;;;;;7.28;6.57;;;25.80;67.40;;;;;;5017646;28;20075;-54
2023/08/14 08:18:46;;;;;;;7.97;6.38;;;25.80;67.40;;;;;;5012374;28;20526;-57
2023/08/14 08:21:12;;;;;;;9.13;6.00;;;25.80;67.60;;;;;;5009631;28;20844;-56
2023/08/14 08:23:37;;;;;;;7.93;6.88;;;25.80;67.50;;;;;;5012024;28;20060;-54
2023/08/14 08:26:03;;;;;;;9.50;6.70;;;25.80;67.80;;;;;;5014321;28;20053;-53
2023/08/14 08:28:29;;;;;;;7.15;6.35;;;25.80;68.00;;;;;;5007559;28;20028;-54
2023/08/14 08:30:55;;;;;;;7.30;5.75;;;25.80;67.80;;;;;;5015610;28;21439;-58
2023/08/14 08:33:20;;;;;;;7.90;6.18;;;25.80;67.80;;;;;;5010535;28;20100;-59
2023/08/14 08:35:46;;;;;;;6.72;6.07;;;25.70;67.70;;;;;;5012401;28;20034;-58
2023/08/14 08:38:11;;;;;;;7.63;6.32;;;25.70;68.10;;;;;;5007814;28;20046;-54
2023/08/14 08:40:41;;;;;;;9.07;7.10;;;25.70;68.50;;;;;;5013171;28;20025;-57
2023/08/14 08:43:07;;;;;;;8.50;6.28;;;25.70;68.60;;;;;;5010269;28;20036;-56
2023/08/14 08:45:36;;;;;;;7.55;6.47;;;25.70;69.00;;;;;;5002028;28;20385;-56
2023/08/14 08:48:05;;;;;;;8.52;6.10;;;25.70;69.20;;;;;;5010880;28;20026;-55
2023/08/14 08:50:31;;;;;;;7.90;6.53;;;25.70;70.10;;;;;;5018300;28;20018;-57
2023/08/14 08:52:58;;;;;;;10.07;7.18;;;25.70;69.60;;;;;;5015001;28;20444;-57
2023/08/14 08:55:23;;;;;;;7.45;6.43;;;25.70;69.50;;;;;;5011082;28;20065;-56
2023/08/14 08:57:50;;;;;;;7.93;6.35;;;25.60;69.80;;;;;;5020794;28;20069;-58
2023/08/14 09:00:16;;;;;;;6.40;5.80;;;25.70;69.90;;;;;;5010401;28;20377;-56
2023/08/14 09:02:43;;;;;;;10.45;6.35;;;25.70;69.70;;;;;;5028156;28;20033;-56
2023/08/14 09:05:08;;;;;;;7.38;6.00;;;25.70;69.70;;;;;;5017311;28;20041;-57
2023/08/14 09:07:34;;;;;;;6.18;5.57;;;25.70;69.80;;;;;;5018703;28;20029;-53
2023/08/14 09:10:00;;;;;;;10.70;6.20;;;25.60;69.40;;;;;;5013690;28;20032;-52
2023/08/14 09:12:26;;;;;;;7.97;5.78;;;25.70;69.30;;;;;;5007224;28;20284;-55
2023/08/14 09:15:06;;;;;;;6.63;5.38;;;25.60;69.10;;;;;;5027415;28;20121;-56
2023/08/14 09:17:33;;;;;;;7.25;5.25;;;25.60;69.20;;;;;;5020697;28;20037;-58
2023/08/14 09:19:58;;;;;;;5.88;5.25;;;25.60;69.40;;;;;;5014011;28;20094;-53
2023/08/14 09:22:27;;;;;;;6.32;5.05;;;25.60;69.30;;;;;;4971678;28;1380265;-57
2023/08/14 09:24:54;;;;;;;5.25;4.63;;;25.60;68.50;;;;;;5013561;28;20137;-53
2023/08/14 09:27:21;;;;;;;5.85;4.32;;;25.60;68.80;;;;;;5017167;28;20021;-57
2023/08/14 09:29:46;;;;;;;7.68;4.50;;;25.60;68.10;;;;;;5010034;28;20037;-58
2023/08/14 09:32:12;;;;;;;5.00;4.35;;;25.60;67.70;;;;;;5013564;28;20025;-55
2023/08/14 09:34:38;;;;;;;6.85;4.68;;;25.60;67.70;;;;;;5014826;28;20025;-57
2023/08/14 09:37:06;;;;;;;4.82;4.32;;;25.60;67.50;;;;;;5013400;28;20033;-57
2023/08/14 09:39:32;;;;;;;6.32;4.43;;;25.60;67.40;;;;;;5014051;28;20037;-57
2023/08/14 09:41:59;;;;;;;5.70;4.50;;;25.70;67.70;;;;;;5017226;28;20076;-57
2023/08/14 09:44:25;;;;;;;5.32;4.82;;;25.60;67.70;;;;;;5015785;28;20036;-53
2023/08/14 09:46:54;;;;;;;5.00;4.50;;;25.60;67.90;;;;;;5012999;28;20036;-56
2023/08/14 09:49:20;;;;;;;6.20;4.50;;;25.60;68.00;;;;;;5011608;28;20030;-57
2023/08/14 09:52:07;;;;;;;6.38;4.50;;;25.60;67.70;;;;;;5011947;28;20079;-56
2023/08/14 09:54:34;;;;;;;5.35;4.18;;;25.70;68.00;;;;;;5016451;28;20022;-57
2023/08/14 09:57:03;;;;;;;5.65;4.35;;;25.70;67.90;;;;;;5021181;28;20172;-57
2023/08/14 09:59:30;;;;;;;5.18;4.07;;;25.60;67.30;;;;;;5019050;28;20021;-57
2023/08/14 10:01:58;;;;;;;5.15;4.57;;;25.60;67.10;;;;;;5014108;28;20053;-57
2023/08/14 10:04:26;;;;;;;7.07;4.90;;;25.60;67.40;;;;;;5018297;28;20462;-53
2023/08/14 10:06:53;;;;;;;5.25;4.10;;;25.60;67.60;;;;;;5013021;28;20022;-55
2023/08/14 10:09:22;;;;;;;5.78;3.63;;;25.60;67.30;;;;;;5009939;28;20028;-56
2023/08/14 10:11:49;;;;;;;4.70;4.18;;;25.60;67.20;;;;;;5010656;28;20096;-55
2023/08/14 10:14:16;;;;;;;5.18;3.80;;;25.60;66.90;;;;;;5012572;28;20038;-56
2023/08/14 10:16:42;;;;;;;4.82;3.88;;;25.60;66.90;;;;;;5009189;28;20157;-56
2023/08/14 10:19:13;;;;;;;4.47;3.72;;;25.60;66.40;;;;;;5010280;28;20030;-56
2023/08/14 10:21:40;;;;;;;4.63;3.58;;;25.60;66.00;;;;;;5008037;28;20034;-57
2023/08/14 10:24:07;;;;;;;4.30;3.45;;;25.70;64.70;;;;;;5011521;28;20056;-55
2023/08/14 10:26:34;;;;;;;3.85;3.10;;;25.60;64.10;;;;;;5013165;28;20029;-57
2023/08/14 10:29:00;;;;;;;4.47;3.30;;;25.60;63.30;;;;;;5016609;28;20021;-56
2023/08/14 10:31:29;;;;;;;4.15;3.10;;;25.70;62.70;;;;;;5017420;28;20026;-56
2023/08/14 10:33:57;;;;;;;4.63;3.22;;;25.60;62.30;;;;;;5014977;28;20105;-54
2023/08/14 10:36:27;;;;;;;4.93;3.15;;;25.60;62.60;;;;;;5016539;28;20045;-54
2023/08/14 10:38:53;;;;;;;3.45;2.90;;;25.60;63.20;;;;;;5012726;28;20030;-55
2023/08/14 10:41:19;;;;;;;4.72;3.30;;;25.60;62.50;;;;;;5014228;28;20060;-58
2023/08/14 10:43:50;;;;;;;6.53;3.10;;;25.60;62.10;;;;;;5010525;28;20028;-52
2023/08/14 10:46:17;;;;;;;4.80;3.08;;;25.70;61.10;;;;;;5021580;28;20033;-56
2023/08/14 10:48:47;;;;;;;4.72;3.03;;;25.60;61.30;;;;;;5016635;28;20044;-54
2023/08/14 10:51:15;;;;;;;3.42;3.08;;;25.70;61.90;;;;;;5016146;28;20485;-54
2023/08/14 10:53:41;;;;;;;3.40;3.10;;;25.70;62.30;;;;;;5018095;28;20065;-55
2023/08/14 10:56:07;;;;;;;3.08;2.78;;;25.70;62.20;;;;;;5020647;28;20595;-56
2023/08/14 10:58:35;;;;;;;4.93;2.95;;;25.70;62.10;;;;;;5020916;28;20033;-54
2023/08/14 11:01:09;;;;;;;2.90;2.60;;;25.70;62.10;;;;;;5019554;28;20049;-56
2023/08/14 11:03:58;;;;;;;5.65;2.92;;;25.70;62.30;;;;;;5017581;28;20037;-52
2023/08/14 11:06:26;;;;;;;2.97;2.67;;;25.70;62.30;;;;;;5014720;28;20041;-57
2023/08/14 11:09:20;;;;;;;4.03;3.10;;;25.70;62.90;;;;;;5017556;28;20027;-56
2023/08/14 11:11:48;;;;;;;3.50;3.17;;;25.70;63.50;;;;;;5010082;28;20034;-58
2023/08/14 11:14:15;;;;;;;4.90;3.33;;;25.70;63.10;;;;;;5019324;28;20477;-57
2023/08/14 11:16:42;;;;;;;5.78;3.00;;;25.70;63.10;;;;;;5019531;28;20030;-56
2023/08/14 11:19:07;;;;;;;10.73;3.05;;;25.70;62.20;;;;;;5018787;28;20033;-51
2023/08/14 11:21:36;;;;;;;5.07;3.45;;;25.70;62.00;;;;;;5007570;28;20026;-57
2023/08/14 11:24:10;;;;;;;3.78;3.38;;;25.70;61.80;;;;;;5016150;28;20042;-56
2023/08/14 11:26:36;;;;;;;5.18;3.42;;;25.80;61.60;;;;;;5013576;28;20093;-55
2023/08/14 11:29:01;;;;;;;3.45;3.15;;;25.70;61.70;;;;;;5019198;28;20103;-57
2023/08/14 11:31:27;;;;;;;4.70;3.15;;;25.80;62.50;;;;;;5019920;28;20504;-57
2023/08/14 11:33:53;;;;;;;4.25;3.15;;;25.80;62.30;;;;;;5016326;28;20018;-55
2023/08/14 11:36:18;;;;;;;5.78;3.15;;;25.80;61.90;;;;;;5015881;28;20029;-56
2023/08/14 11:38:44;;;;;;;3.25;2.95;;;25.70;61.30;;;;;;5004941;28;20046;-55
2023/08/14 11:41:10;;;;;;;4.68;3.42;;;25.80;61.30;;;;;;5015464;28;20038;-55
2023/08/14 11:43:36;;;;;;;3.97;3.33;;;25.70;61.10;;;;;;5011528;28;20049;-52
2023/08/14 11:46:02;;;;;;;5.80;3.42;;;25.70;60.90;;;;;;5005803;28;20496;-53
2023/08/14 11:48:28;;;;;;;5.15;3.42;;;25.80;60.50;;;;;;5012985;28;20394;-57
2023/08/14 11:50:54;;;;;;;5.57;3.28;;;25.80;60.30;;;;;;5008262;28;20037;-55
2023/08/14 11:53:20;;;;;;;5.03;3.58;;;25.80;60.30;;;;;;5009568;28;20029;-55
2023/08/14 11:55:46;;;;;;;5.32;3.72;;;25.80;60.50;;;;;;5014053;28;20036;-55
2023/08/14 11:58:12;;;;;;;4.43;3.70;;;25.80;60.70;;;;;;5002134;28;20033;-57
2023/08/14 12:00:39;;;;;;;4.63;3.20;;;25.80;60.70;;;;;;5006607;28;20626;-56
2023/08/14 12:03:06;;;;;;;6.80;3.72;;;25.80;60.90;;;;;;5007888;28;20041;-52
2023/08/14 12:05:32;;;;;;;3.63;3.05;;;25.80;61.20;;;;;;5012492;28;20393;-57
2023/08/14 12:08:02;;;;;;;4.93;3.38;;;25.80;60.60;;;;;;5008266;28;21025;-55
2023/08/14 12:10:36;;;;;;;5.18;3.80;;;25.80;60.40;;;;;;5014506;28;20030;-56
2023/08/14 12:13:02;;;;;;;4.00;3.53;;;25.80;59.30;;;;;;5004818;28;20034;-56
2023/08/14 12:15:29;;;;;;;5.55;3.45;;;25.70;58.90;;;;;;5012882;28;20148;-55
2023/08/14 12:17:55;;;;;;;4.32;3.20;;;25.80;58.70;;;;;;5008884;28;20044;-54
2023/08/14 12:20:24;;;;;;;5.28;3.60;;;25.70;58.60;;;;;;4999742;28;20030;-55
2023/08/14 12:22:50;;;;;;;4.20;3.38;;;25.70;58.50;;;;;;5003561;28;20054;-54
2023/08/14 12:25:20;;;;;;;4.43;3.10;;;25.70;58.40;;;;;;5013761;28;20033;-55
2023/08/14 12:27:46;;;;;;;3.55;3.17;;;25.80;58.40;;;;;;5011687;28;20026;-53
2023/08/14 12:30:12;;;;;;;4.22;3.08;;;25.70;58.10;;;;;;5009413;28;20026;-55
2023/08/14 12:32:45;;;;;;;3.30;3.00;;;25.70;58.10;;;;;;5016479;28;20027;-56
2023/08/14 12:35:11;;;;;;;4.63;3.35;;;25.70;58.20;;;;;;5011574;28;20026;-56
2023/08/14 12:37:36;;;;;;;4.95;3.17;;;25.70;58.40;;;;;;5006170;28;20057;-55
2023/08/14 12:40:08;;;;;;;3.53;3.22;;;25.70;59.30;;;;;;5008530;28;20052;-58
2023/08/14 12:42:34;;;;;;;4.53;3.10;;;25.70;58.40;;;;;;5011154;28;20018;-56
2023/08/14 12:45:00;;;;;;;3.58;3.17;;;25.70;58.60;;;;;;5007603;28;20038;-56